createdAt,value
2017-12-11T00:02:06.353Z,3.15
2017-12-11T00:04:35.616Z,1.58
2017-12-11T00:07:04.872Z,1.45
2017-12-11T00:09:34.112Z,1.65
2017-12-11T00:12:03.377Z,1.73
2017-12-11T00:14:32.657Z,1.10
2017-12-11T00:17:01.916Z,1.37
2017-12-11T00:19:31.158Z,1.50
2017-12-11T00:22:00.428Z,1.30
2017-12-11T00:24:29.667Z,2.62
2017-12-11T00:26:58.922Z,1.40
2017-12-11T00:29:28.195Z,1.55
2017-12-11T00:31:57.467Z,2.75
2017-12-11T00:34:26.701Z,1.35
2017-12-11T00:36:55.974Z,1.30
2017-12-11T00:39:25.308Z,1.33
2017-12-11T00:41:54.562Z,1.33
2017-12-11T00:44:23.811Z,1.20
2017-12-11T00:46:53.055Z,1.17
2017-12-11T00:49:22.315Z,2.15
2017-12-11T00:51:51.538Z,1.15
2017-12-11T00:54:21.537Z,1.27
2017-12-11T00:56:50.803Z,2.12
2017-12-11T00:59:20.064Z,1.60
2017-12-11T01:01:49.324Z,1.30
2017-12-11T01:04:18.574Z,1.23
2017-12-11T01:06:47.815Z,1.40
2017-12-11T01:09:17.169Z,2.25
2017-12-11T01:11:46.403Z,1.10
2017-12-11T01:14:15.650Z,1.70
2017-12-11T01:16:44.897Z,3.08
2017-12-11T01:19:14.136Z,1.80
2017-12-11T01:21:44.136Z,1.50
2017-12-11T01:24:13.396Z,1.30
2017-12-11T01:26:42.637Z,1.05
2017-12-11T01:29:11.922Z,1.02
2017-12-11T01:31:41.159Z,2.72
2017-12-11T01:34:11.190Z,2.30
2017-12-11T01:36:40.427Z,1.42
2017-12-11T01:39:09.653Z,1.40
2017-12-11T01:41:38.891Z,1.30
2017-12-11T01:44:08.123Z,1.58
2017-12-11T01:46:37.366Z,1.20
2017-12-11T01:49:06.631Z,1.30
2017-12-11T01:51:35.865Z,1.30
2017-12-11T01:54:05.896Z,1.37
2017-12-11T01:56:35.120Z,1.30
2017-12-11T01:59:04.357Z,1.40
2017-12-11T02:01:33.628Z,1.62
2017-12-11T02:04:02.861Z,2.28
2017-12-11T02:06:32.115Z,1.50
2017-12-11T02:09:01.351Z,1.50
2017-12-11T02:11:30.590Z,1.65
2017-12-11T02:13:59.828Z,1.80
2017-12-11T02:16:29.061Z,1.33
2017-12-11T02:18:59.080Z,1.23
2017-12-11T02:21:28.331Z,1.20
2017-12-11T02:23:57.580Z,1.20
2017-12-11T02:26:27.605Z,1.27
2017-12-11T02:28:57.609Z,1.40
2017-12-11T02:31:26.900Z,1.20
2017-12-11T02:33:56.072Z,1.45
2017-12-11T02:36:25.324Z,1.30
2017-12-11T02:38:54.585Z,1.30
2017-12-11T02:41:23.836Z,1.37
2017-12-11T02:43:53.082Z,1.60
2017-12-11T02:46:23.144Z,1.60
2017-12-11T02:48:52.390Z,1.83
2017-12-11T02:51:21.630Z,1.50
2017-12-11T02:53:51.667Z,1.30
2017-12-11T02:56:20.914Z,1.20
2017-12-11T02:58:50.166Z,1.20
2017-12-11T03:01:19.400Z,1.10
2017-12-11T03:03:48.668Z,1.30
2017-12-11T03:06:17.905Z,1.70
2017-12-11T03:08:47.141Z,1.00
2017-12-11T03:11:17.262Z,1.30
2017-12-11T03:13:46.514Z,1.23
2017-12-11T03:16:16.422Z,3.05
2017-12-11T03:18:45.769Z,1.37
2017-12-11T03:21:15.774Z,1.30
2017-12-11T03:23:45.023Z,1.27
2017-12-11T03:26:14.283Z,1.30
2017-12-11T03:28:44.297Z,1.20
2017-12-11T03:31:14.306Z,1.37
2017-12-11T03:33:44.334Z,1.40
2017-12-11T03:36:14.346Z,1.40
2017-12-11T03:38:44.353Z,1.17
2017-12-11T03:41:13.595Z,1.42
2017-12-11T03:43:42.820Z,1.70
2017-12-11T03:46:12.075Z,3.65
2017-12-11T03:48:41.318Z,2.17
2017-12-11T03:51:10.561Z,1.75
2017-12-11T03:53:40.582Z,1.60
2017-12-11T03:56:10.618Z,1.23
2017-12-11T03:58:39.848Z,1.40
2017-12-11T04:01:09.089Z,1.30
2017-12-11T04:03:39.098Z,2.05
2017-12-11T04:06:08.340Z,3.20
2017-12-11T04:08:37.593Z,1.80
2017-12-11T04:11:06.827Z,2.00
2017-12-11T04:13:36.090Z,2.08
2017-12-11T04:16:05.328Z,1.98
2017-12-11T04:18:34.555Z,1.50
2017-12-11T04:21:03.836Z,2.03
2017-12-11T04:23:33.074Z,1.73
2017-12-11T04:26:02.331Z,2.55
2017-12-11T04:28:31.583Z,2.22
2017-12-11T04:31:00.822Z,1.35
2017-12-11T04:33:30.054Z,3.40
2017-12-11T04:35:59.323Z,2.33
2017-12-11T04:38:28.551Z,3.08
2017-12-11T04:40:57.801Z,2.12
2017-12-11T04:43:27.816Z,2.60
2017-12-11T04:45:57.058Z,3.55
2017-12-11T04:48:27.136Z,4.05
2017-12-11T04:50:56.380Z,3.80
2017-12-11T04:53:25.640Z,3.33
2017-12-11T04:55:54.869Z,2.50
2017-12-11T04:58:24.091Z,2.35
2017-12-11T05:00:53.330Z,10.57
2017-12-11T05:03:22.599Z,3.25
2017-12-11T05:05:51.835Z,6.93
2017-12-11T05:08:21.093Z,5.50
2017-12-11T05:10:50.321Z,3.40
2017-12-11T05:13:20.912Z,3.83
2017-12-11T05:15:50.185Z,4.60
2017-12-11T05:18:19.416Z,11.05
2017-12-11T05:20:48.655Z,4.25
2017-12-11T05:23:18.678Z,4.10
2017-12-11T05:25:47.904Z,3.78
2017-12-11T05:28:17.161Z,9.45
2017-12-11T05:30:46.443Z,4.00
2017-12-11T05:33:15.683Z,5.10
2017-12-11T05:35:44.936Z,6.10
2017-12-11T05:38:14.178Z,5.90
2017-12-11T05:40:43.417Z,7.62
2017-12-11T05:43:12.683Z,6.00
2017-12-11T05:45:41.951Z,8.00
2017-12-11T05:48:11.954Z,5.43
2017-12-11T05:50:41.304Z,13.85
2017-12-11T05:53:10.546Z,12.40
2017-12-11T05:55:39.772Z,11.45
2017-12-11T05:58:09.019Z,7.45
2017-12-11T06:00:38.295Z,7.57
2017-12-11T06:03:07.570Z,4.80
2017-12-11T06:05:36.781Z,6.35
2017-12-11T06:08:06.023Z,5.45
2017-12-11T06:10:35.272Z,4.75
2017-12-11T06:13:04.505Z,4.12
2017-12-11T06:15:33.766Z,5.65
2017-12-11T06:18:03.013Z,5.20
2017-12-11T06:20:32.253Z,6.25
2017-12-11T06:23:01.496Z,10.05
2017-12-11T06:25:30.741Z,4.62
2017-12-11T06:27:59.971Z,8.68
2017-12-11T06:30:29.213Z,4.30
2017-12-11T06:32:58.457Z,4.87
2017-12-11T06:35:27.810Z,8.23
2017-12-11T06:37:57.792Z,7.87
2017-12-11T06:40:27.049Z,8.18
2017-12-11T06:42:56.316Z,9.70
2017-12-11T06:45:25.630Z,8.82
2017-12-11T06:47:54.885Z,9.30
2017-12-11T06:50:24.132Z,12.02
2017-12-11T06:52:53.372Z,9.77
2017-12-11T06:55:23.417Z,9.38
2017-12-11T06:57:52.658Z,7.18
2017-12-11T07:00:21.902Z,5.93
2017-12-11T07:02:51.157Z,5.95
2017-12-11T07:05:20.490Z,6.47
2017-12-11T07:07:49.717Z,5.03
2017-12-11T07:10:18.954Z,4.47
2017-12-11T07:12:48.233Z,5.90
2017-12-11T07:15:17.481Z,12.32
2017-12-11T07:17:47.500Z,6.97
2017-12-11T07:20:16.726Z,4.37
2017-12-11T07:22:45.969Z,6.78
2017-12-11T07:25:15.224Z,5.28
2017-12-11T07:27:44.451Z,9.95
2017-12-11T07:30:13.693Z,7.68
2017-12-11T07:32:42.978Z,5.87
2017-12-11T07:35:12.993Z,4.87
2017-12-11T07:37:42.317Z,4.80
2017-12-11T07:40:11.544Z,7.32
2017-12-11T07:42:40.787Z,8.02
2017-12-11T07:45:11.291Z,5.62
2017-12-11T07:47:40.524Z,6.93
2017-12-11T07:50:10.551Z,4.78
2017-12-11T07:52:40.551Z,5.90
2017-12-11T07:55:10.561Z,5.95
2017-12-11T07:57:39.813Z,4.22
2017-12-11T08:00:09.058Z,9.82
2017-12-11T08:02:39.084Z,10.43
2017-12-11T08:05:08.318Z,7.90
2017-12-11T08:07:37.557Z,8.35
2017-12-11T08:10:06.801Z,8.57
2017-12-11T08:12:36.023Z,7.93
2017-12-11T08:15:05.266Z,15.27
2017-12-11T08:17:34.517Z,9.32
2017-12-11T08:20:03.751Z,14.13
2017-12-11T08:22:33.022Z,18.30
2017-12-11T08:25:02.261Z,20.92
2017-12-11T08:27:31.518Z,13.93
2017-12-11T08:30:00.797Z,14.10
2017-12-11T08:32:30.043Z,10.10
2017-12-11T08:34:59.294Z,14.30
2017-12-11T08:37:28.549Z,11.60
2017-12-11T08:39:57.811Z,12.20
2017-12-11T08:42:27.057Z,15.10
2017-12-11T08:44:56.305Z,12.00
2017-12-11T08:47:25.546Z,14.23
2017-12-11T08:49:54.805Z,13.00
2017-12-11T08:52:24.037Z,13.82
2017-12-11T08:54:53.259Z,14.20
2017-12-11T08:57:22.524Z,22.95
2017-12-11T08:59:51.770Z,15.18
2017-12-11T09:02:21.196Z,14.63
2017-12-11T09:04:50.527Z,17.58
2017-12-11T09:07:20.191Z,17.48
2017-12-11T09:09:49.943Z,14.30
2017-12-11T09:12:19.370Z,14.75
2017-12-11T09:14:48.612Z,13.82
2017-12-11T09:17:17.866Z,16.40
2017-12-11T09:19:47.168Z,10.85
2017-12-11T09:22:16.477Z,12.10
2017-12-11T09:24:45.731Z,16.95
2017-12-11T09:27:14.972Z,11.18
2017-12-11T09:29:45.306Z,13.00
2017-12-11T09:32:14.549Z,15.52
2017-12-11T09:34:43.797Z,11.40
2017-12-11T09:37:13.032Z,12.40
2017-12-11T09:39:42.295Z,11.90
2017-12-11T09:42:11.523Z,9.40
2017-12-11T09:44:40.895Z,15.80
2017-12-11T09:47:10.917Z,11.23
2017-12-11T09:49:42.293Z,11.50
2017-12-11T09:52:11.534Z,9.30
2017-12-11T09:54:40.772Z,11.60
2017-12-11T09:57:10.795Z,9.23
2017-12-11T09:59:40.824Z,8.27
2017-12-11T10:02:10.053Z,11.80
2017-12-11T10:04:39.292Z,7.40
2017-12-11T10:07:08.524Z,6.65
2017-12-11T10:09:38.598Z,12.68
2017-12-11T10:12:07.807Z,6.30
2017-12-11T10:14:37.063Z,5.68
2017-12-11T10:17:06.402Z,6.80
2017-12-11T10:19:35.805Z,7.15
2017-12-11T10:22:05.001Z,6.50
2017-12-11T10:24:34.231Z,6.25
2017-12-11T10:27:03.465Z,7.75
2017-12-11T10:29:32.720Z,7.18
2017-12-11T10:32:02.008Z,7.18
2017-12-11T10:34:32.028Z,6.65
2017-12-11T10:37:02.101Z,5.68
2017-12-11T10:39:31.428Z,7.18
2017-12-11T10:42:01.479Z,6.07
2017-12-11T10:44:30.755Z,5.55
2017-12-11T10:47:00.762Z,4.97
2017-12-11T10:49:30.655Z,7.07
2017-12-11T10:51:59.935Z,5.12
2017-12-11T10:54:29.225Z,6.07
2017-12-11T10:56:58.461Z,8.48
2017-12-11T10:59:29.356Z,10.75
2017-12-11T11:01:58.623Z,7.47
2017-12-11T11:04:27.885Z,7.32
2017-12-11T11:06:57.917Z,5.32
2017-12-11T11:09:27.156Z,5.05
2017-12-11T11:11:56.384Z,5.62
2017-12-11T11:14:25.639Z,7.30
2017-12-11T11:16:55.672Z,6.45
2017-12-11T11:19:24.954Z,6.87
2017-12-11T11:21:54.211Z,5.68
2017-12-11T11:24:23.455Z,6.40
2017-12-11T11:26:53.477Z,7.82
2017-12-11T11:29:22.722Z,6.05
2017-12-11T11:31:51.961Z,8.02
2017-12-11T11:34:21.218Z,7.10
2017-12-11T11:36:50.462Z,6.95
2017-12-11T11:39:19.713Z,6.28
2017-12-11T11:41:48.975Z,10.90
2017-12-11T11:44:18.209Z,6.45
2017-12-11T11:46:47.460Z,6.55
2017-12-11T11:49:17.474Z,5.53
2017-12-11T11:51:46.703Z,6.30
2017-12-11T11:54:15.940Z,7.47
2017-12-11T11:56:45.188Z,6.22
2017-12-11T11:59:15.194Z,8.35
2017-12-11T12:01:46.022Z,6.45
2017-12-11T12:04:16.058Z,7.55
2017-12-11T12:06:46.057Z,7.22
2017-12-11T12:09:15.297Z,6.97
2017-12-11T12:11:44.816Z,11.77
2017-12-11T12:14:14.552Z,9.27
2017-12-11T12:16:43.833Z,8.68
2017-12-11T12:19:13.055Z,9.52
2017-12-11T12:21:42.292Z,5.78
2017-12-11T12:24:11.543Z,8.43
2017-12-11T12:26:40.789Z,7.62
2017-12-11T12:29:10.053Z,7.25
2017-12-11T12:31:39.293Z,5.32
2017-12-11T12:34:08.528Z,12.80
2017-12-11T12:36:37.791Z,11.10
2017-12-11T12:39:07.042Z,9.70
2017-12-11T12:41:36.268Z,9.35
2017-12-11T12:44:06.296Z,6.12
2017-12-11T12:46:36.309Z,6.12
2017-12-11T12:49:06.359Z,6.12
2017-12-11T12:51:35.598Z,5.22
2017-12-11T12:54:04.875Z,6.37
2017-12-11T12:56:34.895Z,5.37
2017-12-11T12:59:04.160Z,5.37
2017-12-11T13:01:33.416Z,4.87
2017-12-11T13:04:02.645Z,9.85
2017-12-11T13:06:31.896Z,7.00
2017-12-11T13:09:01.162Z,10.90
2017-12-11T13:11:30.394Z,8.73
2017-12-11T13:13:59.667Z,7.55
2017-12-11T13:16:28.904Z,11.80
2017-12-11T13:18:58.152Z,7.47
2017-12-11T13:21:27.413Z,12.80
2017-12-11T13:23:57.430Z,9.88
2017-12-11T13:26:26.710Z,9.07
2017-12-11T13:28:55.969Z,8.40
2017-12-11T13:31:25.244Z,9.00
2017-12-11T13:33:55.239Z,6.35
2017-12-11T13:36:24.486Z,9.40
2017-12-11T13:38:53.733Z,9.80
2017-12-11T13:41:23.026Z,8.45
2017-12-11T13:43:52.323Z,10.43
2017-12-11T13:46:21.583Z,11.82
2017-12-11T13:48:52.523Z,13.68
2017-12-11T13:51:21.787Z,15.80
2017-12-11T13:53:51.802Z,16.67
2017-12-11T13:56:21.816Z,7.30
2017-12-11T13:58:51.825Z,12.10
2017-12-11T14:01:21.251Z,7.20
2017-12-11T14:03:51.281Z,11.48
2017-12-11T14:06:20.535Z,9.23
2017-12-11T14:08:49.784Z,11.30
2017-12-11T14:11:19.056Z,12.13
2017-12-11T14:13:48.305Z,12.13
2017-12-11T14:16:17.539Z,9.93
2017-12-11T14:18:46.849Z,15.18
2017-12-11T14:21:16.866Z,10.32
2017-12-11T14:23:46.869Z,8.73
2017-12-11T14:26:16.113Z,8.57
2017-12-11T14:28:45.370Z,8.98
2017-12-11T14:31:14.614Z,11.12
2017-12-11T14:33:44.611Z,10.73
2017-12-11T14:36:14.625Z,13.38
2017-12-11T14:38:44.635Z,16.85
2017-12-11T14:41:14.654Z,15.40
2017-12-11T14:43:44.659Z,10.85
2017-12-11T14:46:13.919Z,12.15
2017-12-11T14:48:43.170Z,15.77
2017-12-11T14:51:13.177Z,11.15
2017-12-11T14:53:42.446Z,17.00
2017-12-11T14:56:11.671Z,15.73
2017-12-11T14:58:41.710Z,20.20
2017-12-11T15:01:10.976Z,11.68
2017-12-11T15:03:40.234Z,19.67
2017-12-11T15:06:09.494Z,8.27
2017-12-11T15:08:39.519Z,12.00
2017-12-11T15:11:09.535Z,8.88
2017-12-11T15:13:39.540Z,9.45
2017-12-11T15:16:08.794Z,9.07
2017-12-11T15:18:38.030Z,13.90
2017-12-11T15:21:07.273Z,13.13
2017-12-11T15:23:36.533Z,13.20
2017-12-11T15:26:05.790Z,17.10
2017-12-11T15:28:35.016Z,17.33
2017-12-11T15:31:04.266Z,9.88
2017-12-11T15:33:33.496Z,10.50
2017-12-11T15:36:02.934Z,10.88
2017-12-11T15:38:32.935Z,7.90
2017-12-11T15:41:02.255Z,9.18
2017-12-11T15:43:32.269Z,9.43
2017-12-11T15:46:01.495Z,10.75
2017-12-11T15:48:30.734Z,9.63
2017-12-11T15:50:59.988Z,9.95
2017-12-11T15:53:29.228Z,12.07
2017-12-11T15:55:59.045Z,12.45
2017-12-11T15:58:28.278Z,9.32
2017-12-11T16:00:58.313Z,11.80
2017-12-11T16:03:28.318Z,11.23
2017-12-11T16:05:57.578Z,11.32
2017-12-11T16:08:26.821Z,12.48
2017-12-11T16:10:56.066Z,14.48
2017-12-11T16:13:25.309Z,8.70
2017-12-11T16:15:55.340Z,8.48
2017-12-11T16:18:25.434Z,9.48
2017-12-11T16:20:54.681Z,7.78
2017-12-11T16:23:23.945Z,6.90
2017-12-11T16:25:53.195Z,9.30
2017-12-11T16:28:22.468Z,9.75
2017-12-11T16:30:51.725Z,9.52
2017-12-11T16:33:21.561Z,12.93
2017-12-11T16:35:50.798Z,11.10
2017-12-11T16:38:20.049Z,10.55
2017-12-11T16:40:50.072Z,9.30
2017-12-11T16:43:20.102Z,10.52
2017-12-11T16:45:50.270Z,14.50
2017-12-11T16:48:19.554Z,9.77
2017-12-11T16:50:48.806Z,15.52
2017-12-11T16:53:18.825Z,9.45
2017-12-11T16:55:48.860Z,9.43
2017-12-11T16:58:18.089Z,6.57
2017-12-11T17:00:47.353Z,8.50
2017-12-11T17:03:17.440Z,9.68
2017-12-11T17:05:46.780Z,6.50
2017-12-11T17:08:16.075Z,5.93
2017-12-11T17:10:45.308Z,6.30
2017-12-11T17:13:14.602Z,5.40
2017-12-11T17:15:44.555Z,3.87
2017-12-11T17:18:13.802Z,5.78
2017-12-11T17:20:43.688Z,3.15
2017-12-11T17:23:13.731Z,3.00
2017-12-11T17:25:42.972Z,4.22
2017-12-11T17:28:12.210Z,4.12
2017-12-11T17:30:41.508Z,3.22
2017-12-11T17:33:10.755Z,3.28
2017-12-11T17:35:40.005Z,5.90
2017-12-11T17:38:10.046Z,4.50
2017-12-11T17:40:39.306Z,3.90
2017-12-11T17:43:09.353Z,4.18
2017-12-11T17:45:38.677Z,3.12
2017-12-11T17:48:07.918Z,1.95
2017-12-11T17:50:37.158Z,2.58
2017-12-11T17:53:06.392Z,2.25
2017-12-11T17:55:35.654Z,2.10
2017-12-11T17:58:04.898Z,2.08
2017-12-11T18:00:34.128Z,2.20
2017-12-11T18:03:04.131Z,2.12
2017-12-11T18:05:33.360Z,1.98
2017-12-11T18:08:02.614Z,2.25
2017-12-11T18:10:31.868Z,2.50
2017-12-11T18:13:01.104Z,1.48
2017-12-11T18:15:30.367Z,1.90
2017-12-11T18:17:59.604Z,2.78
2017-12-11T18:20:28.852Z,1.83
2017-12-11T18:22:58.080Z,3.08
2017-12-11T18:25:27.306Z,2.03
2017-12-11T18:27:56.565Z,2.22
2017-12-11T18:30:26.138Z,3.17
2017-12-11T18:32:56.163Z,5.80
2017-12-11T18:35:26.182Z,2.58
2017-12-11T18:37:55.425Z,2.70
2017-12-11T18:40:24.659Z,2.78
2017-12-11T18:42:55.118Z,2.58
2017-12-11T18:45:24.379Z,5.53
2017-12-11T18:47:54.217Z,10.18
2017-12-11T18:50:24.238Z,3.80
2017-12-11T18:52:54.241Z,4.93
2017-12-11T18:55:23.493Z,2.60
2017-12-11T18:57:52.743Z,2.17
2017-12-11T19:00:23.439Z,1.90
2017-12-11T19:02:52.699Z,6.97
2017-12-11T19:05:21.962Z,2.50
2017-12-11T19:07:51.548Z,3.37
2017-12-11T19:10:20.784Z,2.28
2017-12-11T19:12:50.790Z,2.40
2017-12-11T19:15:20.038Z,16.87
2017-12-11T19:17:49.274Z,1.80
2017-12-11T19:20:18.535Z,5.37
2017-12-11T19:22:47.764Z,2.17
2017-12-11T19:25:17.022Z,1.67
2017-12-11T19:27:46.275Z,3.15
2017-12-11T19:30:16.305Z,3.25
2017-12-11T19:32:46.337Z,1.92
2017-12-11T19:35:16.334Z,3.08
2017-12-11T19:37:45.574Z,1.98
2017-12-11T19:40:14.800Z,2.75
2017-12-11T19:42:44.047Z,2.50
2017-12-11T19:45:13.282Z,1.40
2017-12-11T19:47:42.522Z,3.30
2017-12-11T19:50:11.798Z,1.80
2017-12-11T19:52:41.051Z,1.50
2017-12-11T19:55:10.329Z,1.30
2017-12-11T19:57:40.363Z,1.35
2017-12-11T20:00:09.596Z,1.58
2017-12-11T20:02:38.861Z,1.45
2017-12-11T20:05:08.127Z,1.73
2017-12-11T20:07:37.361Z,1.33
2017-12-11T20:10:07.226Z,1.35
2017-12-11T20:12:37.297Z,1.25
2017-12-11T20:15:06.598Z,1.85
2017-12-11T20:17:35.788Z,1.30
2017-12-11T20:20:05.021Z,1.20
2017-12-11T20:22:34.269Z,2.97
2017-12-11T20:25:04.352Z,4.00
2017-12-11T20:27:33.593Z,3.22
2017-12-11T20:30:03.628Z,7.95
2017-12-11T20:32:32.884Z,4.05
2017-12-11T20:35:02.152Z,1.40
2017-12-11T20:37:31.413Z,1.40
2017-12-11T20:40:01.442Z,1.65
2017-12-11T20:42:30.680Z,2.00
2017-12-11T20:44:59.955Z,1.55
2017-12-11T20:47:29.234Z,4.62
2017-12-11T20:49:58.481Z,1.70
2017-12-11T20:52:27.740Z,1.30
2017-12-11T20:54:56.982Z,1.52
2017-12-11T20:57:26.209Z,1.40
2017-12-11T20:59:56.208Z,1.30
2017-12-11T21:02:25.443Z,1.73
2017-12-11T21:04:54.694Z,2.62
2017-12-11T21:07:23.936Z,3.37
2017-12-11T21:09:53.175Z,1.10
2017-12-11T21:12:22.406Z,5.00
2017-12-11T21:14:51.651Z,1.30
2017-12-11T21:17:21.659Z,1.40
2017-12-11T21:19:50.914Z,1.20
2017-12-11T21:22:20.152Z,1.33
2017-12-11T21:24:49.417Z,1.20
2017-12-11T21:27:18.636Z,1.50
2017-12-11T21:29:47.865Z,2.20
2017-12-11T21:32:17.122Z,1.65
2017-12-11T21:34:47.136Z,1.55
2017-12-11T21:37:17.172Z,1.62
2017-12-11T21:39:46.486Z,1.25
2017-12-11T21:42:16.480Z,1.30
2017-12-11T21:44:46.487Z,1.30
2017-12-11T21:47:15.706Z,1.02
2017-12-11T21:49:44.959Z,1.33
2017-12-11T21:52:14.227Z,2.78
2017-12-11T21:54:43.464Z,0.88
2017-12-11T21:57:13.493Z,1.37
2017-12-11T21:59:42.743Z,1.27
2017-12-11T22:02:11.965Z,1.20
2017-12-11T22:04:41.198Z,1.40
2017-12-11T22:07:11.214Z,1.20
2017-12-11T22:09:40.457Z,1.02
2017-12-11T22:12:10.535Z,1.27
2017-12-11T22:14:39.771Z,1.27
2017-12-11T22:17:09.524Z,1.10
2017-12-11T22:19:38.759Z,1.45
2017-12-11T22:22:08.026Z,0.80
2017-12-11T22:24:37.257Z,1.10
2017-12-11T22:27:07.330Z,1.58
2017-12-11T22:29:36.555Z,1.05
2017-12-11T22:32:05.795Z,2.12
2017-12-11T22:34:35.030Z,1.33
2017-12-11T22:37:04.370Z,1.15
2017-12-11T22:39:34.370Z,1.08
2017-12-11T22:42:04.423Z,2.08
2017-12-11T22:44:33.676Z,1.48
2017-12-11T22:47:02.910Z,0.90
2017-12-11T22:49:32.162Z,1.10
2017-12-11T22:52:01.411Z,1.17
2017-12-11T22:54:30.652Z,1.10
2017-12-11T22:56:59.885Z,1.10
2017-12-11T22:59:29.896Z,1.40
2017-12-11T23:01:59.923Z,1.42
2017-12-11T23:04:29.927Z,1.25
2017-12-11T23:06:59.955Z,1.37
2017-12-11T23:09:29.441Z,1.30
2017-12-11T23:11:58.646Z,1.25
2017-12-11T23:14:27.923Z,1.20
2017-12-11T23:16:57.164Z,1.30
2017-12-11T23:19:27.192Z,1.17
2017-12-11T23:21:56.428Z,1.33
2017-12-11T23:24:25.668Z,1.17
2017-12-11T23:26:54.936Z,1.30
2017-12-11T23:29:24.172Z,1.65
2017-12-11T23:31:54.166Z,1.30
2017-12-11T23:34:23.404Z,1.50
2017-12-11T23:36:52.645Z,1.20
2017-12-11T23:39:21.917Z,1.35
2017-12-11T23:41:51.130Z,1.20
2017-12-11T23:44:20.487Z,0.95
2017-12-11T23:46:50.494Z,1.58
2017-12-11T23:49:19.749Z,2.03
2017-12-11T23:51:48.997Z,1.42
2017-12-11T23:54:34.665Z,1.30
2017-12-11T23:57:03.941Z,1.55
2017-12-11T23:59:33.176Z,1.20
